sensor_id;sensor_type;location;lat;lon;timestamp;P1;durP1;ratioP1;P2;durP2;ratioP2
33104;SDS011;19476;51.448;6.674;2023-05-10T00:00:16;7.30;;;3.97;;
33104;SDS011;19476;51.448;6.674;2023-05-10T00:02:42;5.55;;;3.17;;
33104;SDS011;19476;51.448;6.674;2023-05-10T00:05:08;6.18;;;3.15;;
33104;SDS011;19476;51.448;6.674;2023-05-10T00:07:34;6.00;;;3.38;;
33104;SDS011;19476;51.448;6.674;2023-05-10T00:10:00;6.15;;;3.58;;
33104;SDS011;19476;51.448;6.674;2023-05-10T00:12:26;5.10;;;3.28;;
33104;SDS011;19476;51.448;6.674;2023-05-10T00:14:55;5.13;;;3.00;;
33104;SDS011;19476;51.448;6.674;2023-05-10T00:17:21;5.88;;;3.17;;
33104;SDS011;19476;51.448;6.674;2023-05-10T00:19:47;6.00;;;3.55;;
33104;SDS011;19476;51.448;6.674;2023-05-10T00:22:14;4.65;;;2.60;;
33104;SDS011;19476;51.448;6.674;2023-05-10T00:24:40;4.32;;;2.45;;
33104;SDS011;19476;51.448;6.674;2023-05-10T00:27:06;4.72;;;2.78;;
33104;SDS011;19476;51.448;6.674;2023-05-10T00:29:32;5.78;;;3.05;;
33104;SDS011;19476;51.448;6.674;2023-05-10T00:32:00;5.07;;;2.72;;
33104;SDS011;19476;51.448;6.674;2023-05-10T00:34:26;6.82;;;3.45;;
33104;SDS011;19476;51.448;6.674;2023-05-10T00:37:01;7.28;;;3.58;;
33104;SDS011;19476;51.448;6.674;2023-05-10T00:39:27;5.82;;;3.45;;
33104;SDS011;19476;51.448;6.674;2023-05-10T00:41:53;6.55;;;3.50;;
33104;SDS011;19476;51.448;6.674;2023-05-10T00:44:23;6.93;;;4.10;;
33104;SDS011;19476;51.448;6.674;2023-05-10T00:46:56;6.05;;;3.85;;
33104;SDS011;19476;51.448;6.674;2023-05-10T00:49:22;5.80;;;3.72;;
33104;SDS011;19476;51.448;6.674;2023-05-10T00:51:48;7.22;;;3.92;;
33104;SDS011;19476;51.448;6.674;2023-05-10T00:54:15;6.45;;;3.92;;
33104;SDS011;19476;51.448;6.674;2023-05-10T00:56:41;6.30;;;3.75;;
33104;SDS011;19476;51.448;6.674;2023-05-10T00:59:13;7.03;;;3.63;;
33104;SDS011;19476;51.448;6.674;2023-05-10T01:01:42;7.40;;;3.92;;
33104;SDS011;19476;51.448;6.674;2023-05-10T01:04:09;6.85;;;4.15;;
33104;SDS011;19476;51.448;6.674;2023-05-10T01:06:37;6.83;;;3.53;;
33104;SDS011;19476;51.448;6.674;2023-05-10T01:09:04;6.07;;;3.90;;
33104;SDS011;19476;51.448;6.674;2023-05-10T01:11:32;5.95;;;3.65;;
33104;SDS011;19476;51.448;6.674;2023-05-10T01:14:02;6.15;;;3.42;;
33104;SDS011;19476;51.448;6.674;2023-05-10T01:16:29;5.57;;;3.03;;
33104;SDS011;19476;51.448;6.674;2023-05-10T01:19:07;6.03;;;3.30;;
33104;SDS011;19476;51.448;6.674;2023-05-10T01:21:56;5.38;;;3.13;;
33104;SDS011;19476;51.448;6.674;2023-05-10T01:34:09;6.03;;;3.60;;
33104;SDS011;19476;51.448;6.674;2023-05-10T01:42:20;5.63;;;3.47;;
33104;SDS011;19476;51.448;6.674;2023-05-10T01:48:11;6.97;;;4.13;;
33104;SDS011;19476;51.448;6.674;2023-05-10T01:50:41;6.57;;;3.90;;
33104;SDS011;19476;51.448;6.674;2023-05-10T01:53:11;6.32;;;3.78;;
33104;SDS011;19476;51.448;6.674;2023-05-10T01:55:48;6.85;;;3.90;;
33104;SDS011;19476;51.448;6.674;2023-05-10T01:58:36;8.13;;;4.70;;
33104;SDS011;19476;51.448;6.674;2023-05-10T02:01:03;7.25;;;4.10;;
33104;SDS011;19476;51.448;6.674;2023-05-10T02:03:31;9.07;;;4.78;;
33104;SDS011;19476;51.448;6.674;2023-05-10T02:05:59;6.60;;;4.53;;
33104;SDS011;19476;51.448;6.674;2023-05-10T02:08:26;7.50;;;4.43;;
33104;SDS011;19476;51.448;6.674;2023-05-10T02:10:54;7.90;;;4.50;;
33104;SDS011;19476;51.448;6.674;2023-05-10T02:13:22;7.22;;;4.47;;
33104;SDS011;19476;51.448;6.674;2023-05-10T02:15:49;7.60;;;4.70;;
33104;SDS011;19476;51.448;6.674;2023-05-10T02:18:16;8.98;;;4.90;;
33104;SDS011;19476;51.448;6.674;2023-05-10T02:20:44;7.63;;;4.43;;
33104;SDS011;19476;51.448;6.674;2023-05-10T02:23:11;7.57;;;4.63;;
33104;SDS011;19476;51.448;6.674;2023-05-10T02:25:39;8.13;;;5.28;;
33104;SDS011;19476;51.448;6.674;2023-05-10T02:28:10;7.78;;;4.60;;
33104;SDS011;19476;51.448;6.674;2023-05-10T02:30:37;7.93;;;4.50;;
33104;SDS011;19476;51.448;6.674;2023-05-10T02:33:06;8.85;;;5.05;;
33104;SDS011;19476;51.448;6.674;2023-05-10T02:35:33;7.30;;;4.43;;
33104;SDS011;19476;51.448;6.674;2023-05-10T02:38:03;7.57;;;4.43;;
33104;SDS011;19476;51.448;6.674;2023-05-10T02:40:31;7.40;;;4.22;;
33104;SDS011;19476;51.448;6.674;2023-05-10T02:42:59;9.38;;;4.32;;
33104;SDS011;19476;51.448;6.674;2023-05-10T02:45:27;8.68;;;4.68;;
33104;SDS011;19476;51.448;6.674;2023-05-10T02:47:59;6.63;;;4.15;;
33104;SDS011;19476;51.448;6.674;2023-05-10T02:50:27;7.63;;;4.32;;
33104;SDS011;19476;51.448;6.674;2023-05-10T02:52:54;6.70;;;4.63;;
33104;SDS011;19476;51.448;6.674;2023-05-10T02:55:37;7.32;;;4.10;;
33104;SDS011;19476;51.448;6.674;2023-05-10T02:58:05;6.32;;;3.95;;
33104;SDS011;19476;51.448;6.674;2023-05-10T03:00:31;8.68;;;4.70;;
33104;SDS011;19476;51.448;6.674;2023-05-10T03:02:57;7.22;;;4.80;;
33104;SDS011;19476;51.448;6.674;2023-05-10T03:05:33;7.00;;;4.22;;
33104;SDS011;19476;51.448;6.674;2023-05-10T03:07:59;7.30;;;4.30;;
33104;SDS011;19476;51.448;6.674;2023-05-10T03:10:29;7.07;;;3.97;;
33104;SDS011;19476;51.448;6.674;2023-05-10T03:15:55;7.05;;;4.15;;
33104;SDS011;19476;51.448;6.674;2023-05-10T03:18:33;7.93;;;4.40;;
33104;SDS011;19476;51.448;6.674;2023-05-10T03:21:14;6.82;;;4.03;;
33104;SDS011;19476;51.448;6.674;2023-05-10T03:23:46;7.38;;;3.97;;
33104;SDS011;19476;51.448;6.674;2023-05-10T03:26:36;5.70;;;3.60;;
33104;SDS011;19476;51.448;6.674;2023-05-10T03:29:06;7.50;;;3.85;;
33104;SDS011;19476;51.448;6.674;2023-05-10T03:31:32;7.00;;;4.38;;
33104;SDS011;19476;51.448;6.674;2023-05-10T03:34:01;5.68;;;3.45;;
33104;SDS011;19476;51.448;6.674;2023-05-10T03:39:42;6.47;;;3.80;;
33104;SDS011;19476;51.448;6.674;2023-05-10T03:42:12;8.23;;;3.83;;
33104;SDS011;19476;51.448;6.674;2023-05-10T03:46:02;7.20;;;4.18;;
33104;SDS011;19476;51.448;6.674;2023-05-10T03:48:24;6.65;;;3.83;;
33104;SDS011;19476;51.448;6.674;2023-05-10T03:51:05;8.20;;;4.60;;
33104;SDS011;19476;51.448;6.674;2023-05-10T03:53:38;7.78;;;4.55;;
33104;SDS011;19476;51.448;6.674;2023-05-10T03:56:19;7.10;;;3.95;;
33104;SDS011;19476;51.448;6.674;2023-05-10T03:58:49;7.05;;;4.35;;
33104;SDS011;19476;51.448;6.674;2023-05-10T04:01:15;8.45;;;4.68;;
33104;SDS011;19476;51.448;6.674;2023-05-10T04:03:43;7.53;;;4.30;;
33104;SDS011;19476;51.448;6.674;2023-05-10T04:06:09;7.90;;;4.88;;
33104;SDS011;19476;51.448;6.674;2023-05-10T04:08:48;7.93;;;4.63;;
33104;SDS011;19476;51.448;6.674;2023-05-10T04:18:13;7.78;;;4.40;;
33104;SDS011;19476;51.448;6.674;2023-05-10T04:23:39;8.68;;;5.50;;
33104;SDS011;19476;51.448;6.674;2023-05-10T04:26:05;10.27;;;6.13;;
33104;SDS011;19476;51.448;6.674;2023-05-10T04:31:30;10.10;;;5.53;;
33104;SDS011;19476;51.448;6.674;2023-05-10T04:33:59;9.68;;;5.95;;
33104;SDS011;19476;51.448;6.674;2023-05-10T04:36:34;9.55;;;5.97;;
33104;SDS011;19476;51.448;6.674;2023-05-10T04:42:43;11.13;;;6.28;;
33104;SDS011;19476;51.448;6.674;2023-05-10T04:45:09;11.77;;;6.97;;
33104;SDS011;19476;51.448;6.674;2023-05-10T04:47:36;12.15;;;6.53;;
33104;SDS011;19476;51.448;6.674;2023-05-10T04:50:02;13.38;;;7.38;;
33104;SDS011;19476;51.448;6.674;2023-05-10T04:52:29;12.93;;;7.78;;
33104;SDS011;19476;51.448;6.674;2023-05-10T04:54:54;13.18;;;8.32;;
33104;SDS011;19476;51.448;6.674;2023-05-10T04:57:30;13.75;;;8.80;;
33104;SDS011;19476;51.448;6.674;2023-05-10T05:00:15;12.25;;;6.95;;
33104;SDS011;19476;51.448;6.674;2023-05-10T05:02:44;13.80;;;8.00;;
33104;SDS011;19476;51.448;6.674;2023-05-10T05:08:37;12.20;;;7.55;;
33104;SDS011;19476;51.448;6.674;2023-05-10T05:11:02;12.38;;;7.95;;
33104;SDS011;19476;51.448;6.674;2023-05-10T05:13:29;14.65;;;9.10;;
33104;SDS011;19476;51.448;6.674;2023-05-10T05:15:55;14.98;;;8.27;;
33104;SDS011;19476;51.448;6.674;2023-05-10T05:18:21;13.15;;;7.32;;
33104;SDS011;19476;51.448;6.674;2023-05-10T05:20:46;13.82;;;8.60;;
33104;SDS011;19476;51.448;6.674;2023-05-10T05:23:12;13.77;;;9.10;;
33104;SDS011;19476;51.448;6.674;2023-05-10T05:25:38;14.45;;;9.20;;
33104;SDS011;19476;51.448;6.674;2023-05-10T05:28:04;16.98;;;9.98;;
33104;SDS011;19476;51.448;6.674;2023-05-10T05:30:33;15.57;;;9.97;;
33104;SDS011;19476;51.448;6.674;2023-05-10T05:32:59;17.65;;;10.90;;
33104;SDS011;19476;51.448;6.674;2023-05-10T05:35:25;21.30;;;11.63;;
33104;SDS011;19476;51.448;6.674;2023-05-10T05:37:58;17.17;;;10.68;;
33104;SDS011;19476;51.448;6.674;2023-05-10T05:41:23;19.08;;;11.75;;
33104;SDS011;19476;51.448;6.674;2023-05-10T05:44:03;15.63;;;9.63;;
33104;SDS011;19476;51.448;6.674;2023-05-10T05:46:30;16.75;;;10.55;;
33104;SDS011;19476;51.448;6.674;2023-05-10T05:54:58;16.35;;;10.68;;
33104;SDS011;19476;51.448;6.674;2023-05-10T05:57:27;18.70;;;10.93;;
33104;SDS011;19476;51.448;6.674;2023-05-10T05:59:53;17.13;;;11.02;;
33104;SDS011;19476;51.448;6.674;2023-05-10T06:09:17;17.48;;;10.68;;
33104;SDS011;19476;51.448;6.674;2023-05-10T06:11:52;17.35;;;10.40;;
33104;SDS011;19476;51.448;6.674;2023-05-10T06:14:27;16.25;;;9.35;;
33104;SDS011;19476;51.448;6.674;2023-05-10T06:17:02;20.52;;;11.52;;
33104;SDS011;19476;51.448;6.674;2023-05-10T06:19:30;18.30;;;10.70;;
33104;SDS011;19476;51.448;6.674;2023-05-10T06:21:55;18.77;;;10.48;;
33104;SDS011;19476;51.448;6.674;2023-05-10T06:31:14;20.73;;;12.15;;
33104;SDS011;19476;51.448;6.674;2023-05-10T06:33:41;21.88;;;12.85;;
33104;SDS011;19476;51.448;6.674;2023-05-10T06:36:16;18.63;;;11.13;;
33104;SDS011;19476;51.448;6.674;2023-05-10T06:42:05;17.40;;;10.98;;
33104;SDS011;19476;51.448;6.674;2023-05-10T06:44:31;19.23;;;11.50;;
33104;SDS011;19476;51.448;6.674;2023-05-10T06:46:57;21.02;;;11.60;;
33104;SDS011;19476;51.448;6.674;2023-05-10T06:49:26;20.20;;;11.20;;
33104;SDS011;19476;51.448;6.674;2023-05-10T06:51:52;22.25;;;12.55;;
33104;SDS011;19476;51.448;6.674;2023-05-10T06:57:18;19.35;;;11.60;;
33104;SDS011;19476;51.448;6.674;2023-05-10T07:03:20;18.50;;;10.75;;
33104;SDS011;19476;51.448;6.674;2023-05-10T07:09:24;20.98;;;11.57;;
33104;SDS011;19476;51.448;6.674;2023-05-10T07:15:09;19.10;;;11.20;;
33104;SDS011;19476;51.448;6.674;2023-05-10T07:17:36;16.58;;;9.75;;
33104;SDS011;19476;51.448;6.674;2023-05-10T07:22:47;17.70;;;11.30;;
33104;SDS011;19476;51.448;6.674;2023-05-10T07:25:16;20.23;;;11.93;;
33104;SDS011;19476;51.448;6.674;2023-05-10T07:33:58;21.77;;;12.10;;
33104;SDS011;19476;51.448;6.674;2023-05-10T07:36:25;20.70;;;11.23;;
33104;SDS011;19476;51.448;6.674;2023-05-10T07:38:51;21.33;;;13.05;;
33104;SDS011;19476;51.448;6.674;2023-05-10T07:41:17;21.88;;;12.13;;
33104;SDS011;19476;51.448;6.674;2023-05-10T07:43:59;23.85;;;12.10;;
33104;SDS011;19476;51.448;6.674;2023-05-10T07:49:14;19.38;;;10.90;;
33104;SDS011;19476;51.448;6.674;2023-05-10T07:51:40;23.30;;;11.48;;
33104;SDS011;19476;51.448;6.674;2023-05-10T07:54:09;21.52;;;12.25;;
33104;SDS011;19476;51.448;6.674;2023-05-10T07:59:42;20.52;;;11.32;;
33104;SDS011;19476;51.448;6.674;2023-05-10T08:02:09;21.50;;;12.35;;
33104;SDS011;19476;51.448;6.674;2023-05-10T08:04:35;23.83;;;13.25;;
33104;SDS011;19476;51.448;6.674;2023-05-10T08:07:01;21.00;;;12.98;;
33104;SDS011;19476;51.448;6.674;2023-05-10T08:09:30;22.25;;;12.32;;
33104;SDS011;19476;51.448;6.674;2023-05-10T08:12:04;24.13;;;12.90;;
33104;SDS011;19476;51.448;6.674;2023-05-10T08:14:30;20.98;;;11.88;;
33104;SDS011;19476;51.448;6.674;2023-05-10T08:16:56;21.77;;;11.23;;
33104;SDS011;19476;51.448;6.674;2023-05-10T08:19:25;15.73;;;9.30;;
33104;SDS011;19476;51.448;6.674;2023-05-10T08:21:51;17.77;;;9.45;;
33104;SDS011;19476;51.448;6.674;2023-05-10T08:24:18;20.60;;;10.95;;
33104;SDS011;19476;51.448;6.674;2023-05-10T08:26:44;18.45;;;10.73;;
33104;SDS011;19476;51.448;6.674;2023-05-10T08:29:09;17.20;;;10.00;;
33104;SDS011;19476;51.448;6.674;2023-05-10T08:31:35;18.75;;;10.45;;
33104;SDS011;19476;51.448;6.674;2023-05-10T08:34:01;17.77;;;11.05;;
33104;SDS011;19476;51.448;6.674;2023-05-10T08:36:27;19.23;;;11.30;;
33104;SDS011;19476;51.448;6.674;2023-05-10T08:38:53;18.85;;;11.15;;
33104;SDS011;19476;51.448;6.674;2023-05-10T08:41:20;23.23;;;12.30;;
33104;SDS011;19476;51.448;6.674;2023-05-10T08:43:47;22.83;;;12.48;;
33104;SDS011;19476;51.448;6.674;2023-05-10T08:46:16;20.33;;;10.93;;
33104;SDS011;19476;51.448;6.674;2023-05-10T08:48:46;18.42;;;10.88;;
33104;SDS011;19476;51.448;6.674;2023-05-10T08:51:14;20.67;;;12.27;;
33104;SDS011;19476;51.448;6.674;2023-05-10T08:53:42;18.17;;;11.05;;
33104;SDS011;19476;51.448;6.674;2023-05-10T08:56:09;17.95;;;10.00;;
33104;SDS011;19476;51.448;6.674;2023-05-10T08:58:35;15.35;;;9.13;;
33104;SDS011;19476;51.448;6.674;2023-05-10T09:01:03;13.25;;;7.82;;
33104;SDS011;19476;51.448;6.674;2023-05-10T09:03:30;13.82;;;7.82;;
33104;SDS011;19476;51.448;6.674;2023-05-10T09:05:57;14.75;;;8.15;;
33104;SDS011;19476;51.448;6.674;2023-05-10T09:08:23;12.32;;;7.30;;
33104;SDS011;19476;51.448;6.674;2023-05-10T09:10:52;13.17;;;7.13;;
33104;SDS011;19476;51.448;6.674;2023-05-10T09:13:22;13.43;;;7.57;;
33104;SDS011;19476;51.448;6.674;2023-05-10T09:15:49;12.48;;;7.75;;
33104;SDS011;19476;51.448;6.674;2023-05-10T09:18:19;12.43;;;7.97;;
33104;SDS011;19476;51.448;6.674;2023-05-10T09:20:45;12.33;;;7.53;;
33104;SDS011;19476;51.448;6.674;2023-05-10T09:23:11;14.68;;;7.45;;
33104;SDS011;19476;51.448;6.674;2023-05-10T09:25:37;14.80;;;7.70;;
33104;SDS011;19476;51.448;6.674;2023-05-10T09:28:05;12.48;;;7.82;;
33104;SDS011;19476;51.448;6.674;2023-05-10T09:30:34;10.68;;;6.78;;
33104;SDS011;19476;51.448;6.674;2023-05-10T09:33:00;15.95;;;8.27;;
33104;SDS011;19476;51.448;6.674;2023-05-10T09:35:27;13.85;;;7.65;;
33104;SDS011;19476;51.448;6.674;2023-05-10T09:37:54;13.13;;;7.57;;
33104;SDS011;19476;51.448;6.674;2023-05-10T09:40:26;18.17;;;8.52;;
33104;SDS011;19476;51.448;6.674;2023-05-10T09:45:32;12.80;;;7.22;;
33104;SDS011;19476;51.448;6.674;2023-05-10T09:47:59;15.80;;;8.25;;
33104;SDS011;19476;51.448;6.674;2023-05-10T09:50:27;13.90;;;7.97;;
33104;SDS011;19476;51.448;6.674;2023-05-10T09:52:55;11.63;;;7.00;;
33104;SDS011;19476;51.448;6.674;2023-05-10T09:58:11;14.55;;;7.47;;
33104;SDS011;19476;51.448;6.674;2023-05-10T10:00:40;13.60;;;7.53;;
33104;SDS011;19476;51.448;6.674;2023-05-10T10:03:18;13.25;;;7.85;;
33104;SDS011;19476;51.448;6.674;2023-05-10T10:05:45;13.45;;;7.10;;
33104;SDS011;19476;51.448;6.674;2023-05-10T10:08:13;14.35;;;7.93;;
33104;SDS011;19476;51.448;6.674;2023-05-10T10:10:40;13.52;;;7.93;;
33104;SDS011;19476;51.448;6.674;2023-05-10T10:13:07;16.42;;;7.28;;
33104;SDS011;19476;51.448;6.674;2023-05-10T10:15:34;10.82;;;6.93;;
33104;SDS011;19476;51.448;6.674;2023-05-10T10:18:00;13.57;;;7.30;;
33104;SDS011;19476;51.448;6.674;2023-05-10T10:20:28;12.95;;;7.78;;
33104;SDS011;19476;51.448;6.674;2023-05-10T10:22:54;11.48;;;6.40;;
33104;SDS011;19476;51.448;6.674;2023-05-10T10:25:20;12.18;;;7.07;;
33104;SDS011;19476;51.448;6.674;2023-05-10T10:30:42;12.90;;;6.80;;
33104;SDS011;19476;51.448;6.674;2023-05-10T10:36:05;12.82;;;7.95;;
33104;SDS011;19476;51.448;6.674;2023-05-10T10:52:42;15.50;;;8.25;;
33104;SDS011;19476;51.448;6.674;2023-05-10T10:55:09;11.35;;;7.00;;
33104;SDS011;19476;51.448;6.674;2023-05-10T10:57:55;10.98;;;7.20;;
33104;SDS011;19476;51.448;6.674;2023-05-10T11:03:12;10.25;;;6.65;;
33104;SDS011;19476;51.448;6.674;2023-05-10T11:05:41;9.90;;;5.70;;
33104;SDS011;19476;51.448;6.674;2023-05-10T11:08:12;11.88;;;7.03;;
33104;SDS011;19476;51.448;6.674;2023-05-10T11:13:31;9.27;;;5.63;;
33104;SDS011;19476;51.448;6.674;2023-05-10T11:19:12;12.30;;;6.38;;
33104;SDS011;19476;51.448;6.674;2023-05-10T11:21:49;9.63;;;6.32;;
33104;SDS011;19476;51.448;6.674;2023-05-10T11:24:17;11.68;;;6.60;;
33104;SDS011;19476;51.448;6.674;2023-05-10T11:26:44;10.35;;;6.03;;
33104;SDS011;19476;51.448;6.674;2023-05-10T11:29:12;9.18;;;6.43;;
33104;SDS011;19476;51.448;6.674;2023-05-10T11:31:42;10.38;;;6.78;;
33104;SDS011;19476;51.448;6.674;2023-05-10T11:34:22;9.57;;;5.63;;
33104;SDS011;19476;51.448;6.674;2023-05-10T11:36:55;9.48;;;5.13;;
33104;SDS011;19476;51.448;6.674;2023-05-10T11:39:22;8.15;;;5.00;;
33104;SDS011;19476;51.448;6.674;2023-05-10T11:41:54;6.78;;;3.83;;
33104;SDS011;19476;51.448;6.674;2023-05-10T11:44:21;7.95;;;4.53;;
33104;SDS011;19476;51.448;6.674;2023-05-10T11:46:46;7.22;;;4.55;;
33104;SDS011;19476;51.448;6.674;2023-05-10T11:49:14;7.70;;;4.18;;
33104;SDS011;19476;51.448;6.674;2023-05-10T11:51:40;6.82;;;3.22;;
33104;SDS011;19476;51.448;6.674;2023-05-10T11:54:09;8.57;;;4.47;;
33104;SDS011;19476;51.448;6.674;2023-05-10T11:56:39;8.05;;;3.83;;
33104;SDS011;19476;51.448;6.674;2023-05-10T11:59:05;6.80;;;3.67;;
33104;SDS011;19476;51.448;6.674;2023-05-10T12:01:33;7.80;;;3.35;;
33104;SDS011;19476;51.448;6.674;2023-05-10T12:03:59;6.03;;;3.47;;
33104;SDS011;19476;51.448;6.674;2023-05-10T12:06:29;8.90;;;3.85;;
33104;SDS011;19476;51.448;6.674;2023-05-10T12:08:57;6.18;;;3.53;;
33104;SDS011;19476;51.448;6.674;2023-05-10T12:11:24;6.93;;;3.95;;
33104;SDS011;19476;51.448;6.674;2023-05-10T12:13:52;7.47;;;3.70;;
33104;SDS011;19476;51.448;6.674;2023-05-10T12:16:19;7.50;;;3.70;;
33104;SDS011;19476;51.448;6.674;2023-05-10T12:18:50;7.13;;;3.97;;
33104;SDS011;19476;51.448;6.674;2023-05-10T12:21:16;6.30;;;3.35;;
33104;SDS011;19476;51.448;6.674;2023-05-10T12:23:45;7.30;;;3.42;;
33104;SDS011;19476;51.448;6.674;2023-05-10T12:26:15;7.75;;;4.15;;
33104;SDS011;19476;51.448;6.674;2023-05-10T12:28:41;6.10;;;3.63;;
33104;SDS011;19476;51.448;6.674;2023-05-10T12:31:07;6.78;;;3.83;;
33104;SDS011;19476;51.448;6.674;2023-05-10T12:33:37;6.95;;;3.80;;
33104;SDS011;19476;51.448;6.674;2023-05-10T12:36:08;6.07;;;3.90;;
33104;SDS011;19476;51.448;6.674;2023-05-10T12:38:36;6.40;;;3.58;;
33104;SDS011;19476;51.448;6.674;2023-05-10T12:41:06;5.28;;;2.97;;
33104;SDS011;19476;51.448;6.674;2023-05-10T12:43:34;6.72;;;3.55;;
33104;SDS011;19476;51.448;6.674;2023-05-10T12:46:14;7.32;;;3.85;;
33104;SDS011;19476;51.448;6.674;2023-05-10T12:48:41;6.03;;;4.05;;
33104;SDS011;19476;51.448;6.674;2023-05-10T12:51:09;5.63;;;3.13;;
33104;SDS011;19476;51.448;6.674;2023-05-10T12:53:37;7.80;;;3.10;;
33104;SDS011;19476;51.448;6.674;2023-05-10T13:02:34;3.72;;;2.15;;
33104;SDS011;19476;51.448;6.674;2023-05-10T14:12:31;6.18;;;3.28;;
33104;SDS011;19476;51.448;6.674;2023-05-10T14:14:57;7.15;;;4.47;;
33104;SDS011;19476;51.448;6.674;2023-05-10T14:17:23;5.93;;;3.85;;
33104;SDS011;19476;51.448;6.674;2023-05-10T14:19:49;6.82;;;3.70;;
33104;SDS011;19476;51.448;6.674;2023-05-10T14:22:15;4.90;;;3.25;;
33104;SDS011;19476;51.448;6.674;2023-05-10T14:24:41;5.32;;;3.78;;
33104;SDS011;19476;51.448;6.674;2023-05-10T14:27:11;6.97;;;4.38;;
33104;SDS011;19476;51.448;6.674;2023-05-10T14:29:37;8.05;;;4.28;;
33104;SDS011;19476;51.448;6.674;2023-05-10T14:32:03;7.80;;;4.97;;
33104;SDS011;19476;51.448;6.674;2023-05-10T14:34:30;8.43;;;5.40;;
33104;SDS011;19476;51.448;6.674;2023-05-10T14:36:55;8.43;;;6.10;;
33104;SDS011;19476;51.448;6.674;2023-05-10T14:39:21;8.57;;;5.88;;
33104;SDS011;19476;51.448;6.674;2023-05-10T14:41:48;10.02;;;6.47;;
33104;SDS011;19476;51.448;6.674;2023-05-10T14:44:14;8.45;;;5.60;;
33104;SDS011;19476;51.448;6.674;2023-05-10T14:46:40;8.65;;;5.65;;
33104;SDS011;19476;51.448;6.674;2023-05-10T14:49:07;9.10;;;5.90;;
33104;SDS011;19476;51.448;6.674;2023-05-10T14:51:32;9.23;;;6.05;;
33104;SDS011;19476;51.448;6.674;2023-05-10T14:53:58;8.88;;;5.28;;
33104;SDS011;19476;51.448;6.674;2023-05-10T14:56:24;8.85;;;5.75;;
33104;SDS011;19476;51.448;6.674;2023-05-10T14:58:51;8.63;;;5.70;;
33104;SDS011;19476;51.448;6.674;2023-05-10T15:01:21;9.15;;;5.07;;
33104;SDS011;19476;51.448;6.674;2023-05-10T15:03:47;7.45;;;4.18;;
33104;SDS011;19476;51.448;6.674;2023-05-10T15:06:13;8.75;;;5.07;;
33104;SDS011;19476;51.448;6.674;2023-05-10T15:08:41;6.28;;;3.67;;
33104;SDS011;19476;51.448;6.674;2023-05-10T15:34:28;3.35;;;1.20;;
33104;SDS011;19476;51.448;6.674;2023-05-10T15:36:54;2.65;;;1.50;;
33104;SDS011;19476;51.448;6.674;2023-05-10T15:39:20;3.97;;;1.83;;
33104;SDS011;19476;51.448;6.674;2023-05-10T15:41:50;3.72;;;1.20;;
33104;SDS011;19476;51.448;6.674;2023-05-10T15:44:16;2.75;;;1.65;;
33104;SDS011;19476;51.448;6.674;2023-05-10T15:46:43;3.28;;;1.63;;
33104;SDS011;19476;51.448;6.674;2023-05-10T15:49:09;2.55;;;1.40;;
33104;SDS011;19476;51.448;6.674;2023-05-10T15:51:36;2.28;;;1.40;;
33104;SDS011;19476;51.448;6.674;2023-05-10T15:54:02;2.92;;;1.70;;
33104;SDS011;19476;51.448;6.674;2023-05-10T15:56:28;3.45;;;1.90;;
33104;SDS011;19476;51.448;6.674;2023-05-10T15:58:54;3.90;;;1.88;;
33104;SDS011;19476;51.448;6.674;2023-05-10T16:01:20;2.55;;;1.60;;
33104;SDS011;19476;51.448;6.674;2023-05-10T16:03:46;2.50;;;1.50;;
33104;SDS011;19476;51.448;6.674;2023-05-10T16:06:12;3.03;;;1.67;;
33104;SDS011;19476;51.448;6.674;2023-05-10T16:08:38;4.25;;;2.00;;
33104;SDS011;19476;51.448;6.674;2023-05-10T16:11:03;2.47;;;1.63;;
33104;SDS011;19476;51.448;6.674;2023-05-10T16:13:29;4.10;;;1.95;;
33104;SDS011;19476;51.448;6.674;2023-05-10T16:15:55;3.50;;;2.08;;
33104;SDS011;19476;51.448;6.674;2023-05-10T16:18:22;3.55;;;1.95;;
33104;SDS011;19476;51.448;6.674;2023-05-10T16:20:48;3.58;;;2.25;;
33104;SDS011;19476;51.448;6.674;2023-05-10T16:23:14;3.15;;;1.90;;
33104;SDS011;19476;51.448;6.674;2023-05-10T16:25:40;5.45;;;2.55;;
33104;SDS011;19476;51.448;6.674;2023-05-10T16:28:06;3.58;;;2.22;;
33104;SDS011;19476;51.448;6.674;2023-05-10T16:30:32;5.72;;;3.10;;
33104;SDS011;19476;51.448;6.674;2023-05-10T16:32:58;4.10;;;2.40;;
33104;SDS011;19476;51.448;6.674;2023-05-10T16:35:25;3.47;;;2.20;;
33104;SDS011;19476;51.448;6.674;2023-05-10T16:37:51;5.97;;;3.38;;
33104;SDS011;19476;51.448;6.674;2023-05-10T16:40:17;4.55;;;3.20;;
33104;SDS011;19476;51.448;6.674;2023-05-10T16:42:43;3.92;;;2.70;;
33104;SDS011;19476;51.448;6.674;2023-05-10T16:45:10;7.07;;;3.35;;
33104;SDS011;19476;51.448;6.674;2023-05-10T16:47:37;6.40;;;3.80;;
33104;SDS011;19476;51.448;6.674;2023-05-10T16:50:05;3.33;;;1.77;;
33104;SDS011;19476;51.448;6.674;2023-05-10T16:52:32;2.63;;;1.83;;
33104;SDS011;19476;51.448;6.674;2023-05-10T16:54:59;2.35;;;1.20;;
33104;SDS011;19476;51.448;6.674;2023-05-10T16:57:25;1.60;;;1.10;;
33104;SDS011;19476;51.448;6.674;2023-05-10T16:59:52;1.70;;;1.00;;
33104;SDS011;19476;51.448;6.674;2023-05-10T17:02:18;3.28;;;1.20;;
33104;SDS011;19476;51.448;6.674;2023-05-10T17:04:45;3.13;;;1.40;;
33104;SDS011;19476;51.448;6.674;2023-05-10T17:07:11;2.72;;;1.20;;
33104;SDS011;19476;51.448;6.674;2023-05-10T17:09:38;2.20;;;1.10;;
33104;SDS011;19476;51.448;6.674;2023-05-10T17:12:04;1.35;;;1.10;;
33104;SDS011;19476;51.448;6.674;2023-05-10T17:14:30;2.00;;;1.40;;
33104;SDS011;19476;51.448;6.674;2023-05-10T17:16:56;1.83;;;1.00;;
33104;SDS011;19476;51.448;6.674;2023-05-10T17:19:22;2.08;;;1.00;;
33104;SDS011;19476;51.448;6.674;2023-05-10T17:21:48;3.80;;;1.40;;
33104;SDS011;19476;51.448;6.674;2023-05-10T17:24:13;2.80;;;1.17;;
33104;SDS011;19476;51.448;6.674;2023-05-10T17:26:41;1.40;;;0.93;;
33104;SDS011;19476;51.448;6.674;2023-05-10T17:29:07;2.55;;;1.00;;
33104;SDS011;19476;51.448;6.674;2023-05-10T17:31:32;2.33;;;1.20;;
33104;SDS011;19476;51.448;6.674;2023-05-10T17:33:58;2.42;;;1.38;;
33104;SDS011;19476;51.448;6.674;2023-05-10T17:36:24;3.65;;;0.95;;
33104;SDS011;19476;51.448;6.674;2023-05-10T17:38:50;2.28;;;1.00;;
33104;SDS011;19476;51.448;6.674;2023-05-10T17:41:16;1.85;;;1.08;;
33104;SDS011;19476;51.448;6.674;2023-05-10T17:43:42;2.45;;;1.40;;
33104;SDS011;19476;51.448;6.674;2023-05-10T17:46:08;3.17;;;1.65;;
33104;SDS011;19476;51.448;6.674;2023-05-10T17:48:39;2.80;;;1.30;;
33104;SDS011;19476;51.448;6.674;2023-05-10T17:51:05;2.57;;;1.30;;
33104;SDS011;19476;51.448;6.674;2023-05-10T17:53:36;3.42;;;1.30;;
33104;SDS011;19476;51.448;6.674;2023-05-10T17:56:05;2.08;;;1.33;;
33104;SDS011;19476;51.448;6.674;2023-05-10T17:58:31;2.80;;;1.73;;
33104;SDS011;19476;51.448;6.674;2023-05-10T18:00:57;2.72;;;1.50;;
33104;SDS011;19476;51.448;6.674;2023-05-10T18:03:23;3.28;;;1.70;;
33104;SDS011;19476;51.448;6.674;2023-05-10T18:05:49;3.00;;;1.58;;
33104;SDS011;19476;51.448;6.674;2023-05-10T18:08:15;4.30;;;2.05;;
33104;SDS011;19476;51.448;6.674;2023-05-10T18:10:46;2.90;;;1.88;;
33104;SDS011;19476;51.448;6.674;2023-05-10T18:13:15;4.90;;;2.75;;
33104;SDS011;19476;51.448;6.674;2023-05-10T18:15:41;3.67;;;2.38;;
33104;SDS011;19476;51.448;6.674;2023-05-10T18:18:08;7.63;;;5.38;;
33104;SDS011;19476;51.448;6.674;2023-05-10T18:20:35;7.22;;;3.95;;
33104;SDS011;19476;51.448;6.674;2023-05-10T18:23:01;5.45;;;3.22;;
33104;SDS011;19476;51.448;6.674;2023-05-10T18:25:27;4.50;;;2.97;;
33104;SDS011;19476;51.448;6.674;2023-05-10T18:27:53;4.28;;;2.75;;
33104;SDS011;19476;51.448;6.674;2023-05-10T18:30:19;4.10;;;2.40;;
33104;SDS011;19476;51.448;6.674;2023-05-10T18:32:45;4.78;;;2.70;;
33104;SDS011;19476;51.448;6.674;2023-05-10T18:35:11;5.38;;;2.80;;